Time;durP1;ratioP1;P1;durP2;ratioP2;P2;SDS_P1;SDS_P2;PMS_P1;PMS_P2;Temp;Humidity;BMP_temperature;BMP_pressure;BME280_temperature;BME280_humidity;BME280_pressure;Samples;Min_cycle;Max_cycle;Signal;HPM_P1;HPM_P2
2023/12/15 00:00:30;;;;;;;23.25;13.95;;;;;;;7.80;100.00;102019.56;5037884;28;20041;-75
2023/12/15 00:02:56;;;;;;;21.98;13.75;;;;;;;7.86;100.00;102014.16;5037969;28;20044;-75
2023/12/15 00:05:22;;;;;;;20.30;13.15;;;;;;;7.87;100.00;102011.13;5023796;28;20035;-74
2023/12/15 00:07:47;;;;;;;18.15;12.00;;;;;;;7.88;100.00;102020.25;5019795;28;20552;-75
2023/12/15 00:10:13;;;;;;;20.30;12.45;;;;;;;7.90;100.00;102018.94;5037697;28;20036;-75
2023/12/15 00:12:38;;;;;;;11.60;9.20;;;;;;;7.93;100.00;102017.63;5020247;28;20049;-75
2023/12/15 00:15:04;;;;;;;11.43;8.20;;;;;;;7.94;100.00;102020.16;5034310;28;20034;-74
2023/12/15 00:17:30;;;;;;;10.10;7.05;;;;;;;8.01;100.00;102022.81;5036403;28;20466;-75
2023/12/15 00:19:55;;;;;;;14.80;7.63;;;;;;;8.01;100.00;102022.81;5036097;28;20056;-75
2023/12/15 00:22:20;;;;;;;10.52;7.13;;;;;;;8.02;100.00;102021.72;5039491;28;20034;-75
2023/12/15 00:24:46;;;;;;;11.02;6.43;;;;;;;8.02;100.00;102025.34;5037155;28;20040;-75
2023/12/15 00:27:13;;;;;;;10.73;5.55;;;;;;;8.05;100.00;102026.75;5037414;28;20029;-75
2023/12/15 00:29:39;;;;;;;10.57;5.80;;;;;;;8.05;100.00;102015.69;5036377;28;20029;-75
2023/12/15 00:32:05;;;;;;;8.07;5.80;;;;;;;8.06;100.00;102017.41;5036150;28;20025;-75
2023/12/15 00:34:30;;;;;;;6.93;4.88;;;;;;;8.05;100.00;102022.09;5037211;28;20080;-75
2023/12/15 00:36:55;;;;;;;9.00;5.15;;;;;;;8.05;100.00;102015.69;5036109;28;20022;-75
2023/12/15 00:39:21;;;;;;;7.85;5.45;;;;;;;8.07;100.00;102011.59;5036557;28;20022;-74
2023/12/15 00:41:47;;;;;;;10.25;5.45;;;;;;;8.08;100.00;102009.69;5036050;28;20037;-75
2023/12/15 00:44:12;;;;;;;10.18;5.30;;;;;;;8.08;100.00;102006.94;5035108;28;20033;-75
2023/12/15 00:46:37;;;;;;;7.53;5.15;;;;;;;8.08;100.00;102004.16;5037095;28;20509;-75
2023/12/15 00:49:03;;;;;;;11.35;5.05;;;;;;;8.08;100.00;102001.41;5036932;28;20025;-75
2023/12/15 00:51:28;;;;;;;8.13;5.38;;;;;;;8.09;100.00;101994.78;5042503;28;20390;-75
2023/12/15 00:53:54;;;;;;;8.85;4.80;;;;;;;8.09;100.00;102003.06;5036552;28;20034;-74
2023/12/15 00:56:19;;;;;;;8.68;4.45;;;;;;;8.09;100.00;102002.25;5035679;28;20055;-75
2023/12/15 00:58:45;;;;;;;5.32;4.18;;;;;;;8.08;100.00;102015.25;5035492;28;20022;-74
2023/12/15 01:01:10;;;;;;;7.30;4.25;;;;;;;8.06;100.00;102017.41;5033775;28;20127;-75
2023/12/15 01:03:37;;;;;;;10.10;4.30;;;;;;;8.05;100.00;102022.09;5039600;28;20895;-75
2023/12/15 01:06:02;;;;;;;7.93;3.90;;;;;;;8.03;100.00;102024.25;5027354;28;20480;-75
2023/12/15 01:08:27;;;;;;;7.20;3.85;;;;;;;8.03;100.00;102034.47;5030485;28;20040;-74
2023/12/15 01:10:53;;;;;;;7.00;3.70;;;;;;;8.01;100.00;102031.09;5023168;28;20042;-75
2023/12/15 01:13:18;;;;;;;5.25;3.38;;;;;;;7.98;100.00;102023.28;5026563;28;20029;-74
2023/12/15 01:15:44;;;;;;;6.82;3.55;;;;;;;7.97;100.00;102024.38;5027130;28;20092;-75
2023/12/15 01:18:10;;;;;;;5.45;3.83;;;;;;;7.95;100.00;102018.22;5025903;28;20441;-75
2023/12/15 01:20:37;;;;;;;7.10;3.50;;;;;;;7.93;100.00;102015.69;5027188;28;20117;-75
2023/12/15 01:23:03;;;;;;;8.10;3.97;;;;;;;7.91;100.00;102025.31;5028450;28;20022;-74
2023/12/15 01:25:33;;;;;;;6.15;3.85;;;;;;;7.89;100.00;102019.19;5027843;28;20025;-74
2023/12/15 01:27:59;;;;;;;5.15;3.50;;;;;;;7.84;100.00;102017.13;5025302;28;20033;-75
2023/12/15 01:30:24;;;;;;;7.40;3.53;;;;;;;7.80;100.00;102019.56;5027792;28;20059;-75
2023/12/15 01:32:50;;;;;;;7.38;3.97;;;;;;;7.78;100.00;102026.41;5022803;28;20069;-74
2023/12/15 01:35:15;;;;;;;5.88;3.85;;;;;;;7.73;100.00;102021.56;5028698;28;20037;-75
2023/12/15 01:37:41;;;;;;;5.50;3.47;;;;;;;7.69;100.00;102027.81;5026908;28;20034;-75
2023/12/15 01:40:08;;;;;;;7.05;3.25;;;;;;;7.67;100.00;102030.81;5019817;28;20030;-74
2023/12/15 01:42:33;;;;;;;6.45;3.03;;;;;;;7.61;100.00;102035.38;5030282;28;20474;-75
2023/12/15 01:44:59;;;;;;;6.78;3.20;;;;;;;7.58;100.00;102049.69;5018978;28;20128;-75
2023/12/15 01:47:25;;;;;;;7.45;2.83;;;;;;;7.54;100.00;102039.31;5026280;28;20033;-75
2023/12/15 01:49:50;;;;;;;5.53;3.22;;;;;;;7.49;100.00;102044.72;5030249;28;20037;-74
2023/12/15 01:52:17;;;;;;;5.97;3.03;;;;;;;7.46;100.00;102036.91;5025843;28;20037;-75
2023/12/15 01:54:42;;;;;;;8.43;3.28;;;;;;;7.42;100.00;102044.00;5026253;28;20451;-74
2023/12/15 01:57:08;;;;;;;6.28;2.70;;;;;;;7.38;100.00;102044.47;5014507;28;20088;-74
2023/12/15 01:59:42;;;;;;;6.82;2.72;;;;;;;7.38;100.00;102051.88;5025343;28;20033;-74
2023/12/15 02:02:08;;;;;;;6.03;2.70;;;;;;;7.34;100.00;102048.75;5032934;28;20102;-75
2023/12/15 02:04:33;;;;;;;4.90;2.97;;;;;;;7.30;100.00;102057.75;5018334;28;20033;-75
2023/12/15 02:06:59;;;;;;;5.68;2.60;;;;;;;7.28;100.00;102060.75;5035845;28;20025;-74
2023/12/15 02:09:24;;;;;;;7.93;2.88;;;;;;;7.27;100.00;102064.63;5017942;28;20033;-74
2023/12/15 02:11:50;;;;;;;7.47;2.47;;;;;;;7.26;100.00;102075.88;5035853;28;20502;-74
2023/12/15 02:14:15;;;;;;;5.40;2.60;;;;;;;7.25;100.00;102072.28;5032775;28;20092;-74
2023/12/15 02:16:41;;;;;;;4.57;2.17;;;;;;;7.25;100.00;102077.81;5034364;28;20375;-75
2023/12/15 02:19:06;;;;;;;4.40;2.35;;;;;;;7.23;100.00;102074.44;5035647;28;20038;-74
2023/12/15 02:21:35;;;;;;;6.97;2.28;;;;;;;7.24;100.00;102078.03;5034317;28;20029;-74
2023/12/15 02:24:00;;;;;;;7.25;2.30;;;;;;;7.26;100.00;102073.97;5034280;28;20026;-75
2023/12/15 02:26:26;;;;;;;5.95;2.90;;;;;;;7.23;100.00;102079.13;5035584;28;20040;-74
2023/12/15 02:28:51;;;;;;;5.65;2.17;;;;;;;7.24;100.00;102081.63;5034441;28;20100;-75
2023/12/15 02:31:20;;;;;;;6.72;2.40;;;;;;;7.24;100.00;102089.91;5024573;28;20030;-75
2023/12/15 02:33:45;;;;;;;5.90;2.58;;;;;;;7.22;100.00;102088.50;5034594;28;20562;-74
2023/12/15 02:36:18;;;;;;;4.40;2.28;;;;;;;7.21;100.00;102093.16;5035584;28;20029;-75
2023/12/15 02:38:43;;;;;;;4.55;2.30;;;;;;;7.20;100.00;102094.25;5034255;28;20025;-75
2023/12/15 02:41:11;;;;;;;6.97;2.42;;;;;;;7.24;100.00;102105.66;5034103;28;20041;-75
2023/12/15 02:43:36;;;;;;;6.90;2.50;;;;;;;7.23;100.00;102102.06;5018028;28;20025;-75
2023/12/15 02:46:02;;;;;;;4.72;2.40;;;;;;;7.23;100.00;102107.59;5033739;28;20037;-75
2023/12/15 02:48:27;;;;;;;4.82;2.33;;;;;;;7.22;100.00;102113.38;5035652;28;20456;-75
2023/12/15 02:50:52;;;;;;;4.40;2.22;;;;;;;7.23;100.00;102115.88;5042280;28;20044;-75
2023/12/15 02:53:18;;;;;;;6.55;2.40;;;;;;;7.24;100.00;102119.47;5033996;28;20025;-75
2023/12/15 02:55:44;;;;;;;5.35;1.80;;;;;;;7.23;100.00;102124.16;5019294;28;20087;-74
2023/12/15 02:58:10;;;;;;;5.07;2.42;;;;;;;7.25;100.00;102121.19;5043722;28;20047;-74
2023/12/15 03:00:35;;;;;;;5.72;2.28;;;;;;;7.22;100.00;102122.50;5017570;28;20501;-74
2023/12/15 03:03:00;;;;;;;7.68;2.30;;;;;;;7.24;100.00;102116.72;5037806;28;20067;-74
2023/12/15 03:05:26;;;;;;;7.05;2.20;;;;;;;7.24;100.00;102123.09;5038924;28;20677;-74
2023/12/15 03:07:51;;;;;;;4.65;2.25;;;;;;;7.23;100.00;102117.81;5038660;28;20036;-75
2023/12/15 03:10:17;;;;;;;4.40;2.30;;;;;;;7.22;100.00;102114.19;5037606;28;20034;-74
2023/12/15 03:12:42;;;;;;;7.05;2.50;;;;;;;7.19;100.00;102117.44;5038942;28;20026;-74
2023/12/15 03:15:08;;;;;;;5.00;2.47;;;;;;;7.19;100.00;102122.97;5035270;28;20044;-74
2023/12/15 03:17:33;;;;;;;6.72;2.47;;;;;;;7.14;100.00;102125.56;5021184;28;20089;-74
2023/12/15 03:19:59;;;;;;;7.68;2.40;;;;;;;7.09;100.00;102139.22;5039072;28;20481;-74
2023/12/15 03:22:25;;;;;;;7.25;2.55;;;;;;;7.09;100.00;102139.22;5030582;28;20034;-75
2023/12/15 03:24:50;;;;;;;4.50;2.38;;;;;;;7.04;100.00;102142.69;5037292;28;20044;-74
2023/12/15 03:27:15;;;;;;;5.25;2.58;;;;;;;7.01;100.00;102148.66;5037567;28;20080;-74
2023/12/15 03:29:41;;;;;;;6.00;2.13;;;;;;;7.02;100.00;102143.97;5038422;28;20476;-74
2023/12/15 03:32:06;;;;;;;6.60;2.42;;;;;;;6.99;100.00;102147.22;5038694;28;20026;-74
2023/12/15 03:34:32;;;;;;;5.15;2.42;;;;;;;6.91;100.00;102151.97;5038283;28;20041;-74
2023/12/15 03:36:57;;;;;;;5.63;2.65;;;;;;;6.95;100.00;102160.66;5038379;28;20033;-74
2023/12/15 03:39:23;;;;;;;4.43;2.05;;;;;;;6.80;100.00;102158.25;5038013;28;20033;-75
2023/12/15 03:41:48;;;;;;;3.60;2.30;;;;;;;6.82;100.00;102160.78;5037040;28;20029;-74
2023/12/15 03:44:14;;;;;;;6.80;2.10;;;;;;;6.80;100.00;102165.69;5035197;28;20021;-74
2023/12/15 03:46:39;;;;;;;4.43;2.40;;;;;;;6.74;100.00;102161.91;5038318;28;20030;-75
2023/12/15 03:49:05;;;;;;;3.55;2.33;;;;;;;6.70;100.00;102163.47;5036834;28;20030;-74
2023/12/15 03:51:30;;;;;;;4.68;2.53;;;;;;;6.63;100.00;102168.19;5025500;28;20029;-74
2023/12/15 03:53:56;;;;;;;5.78;2.50;;;;;;;6.63;100.00;102176.47;5033348;28;20048;-74
2023/12/15 03:56:25;;;;;;;4.32;2.45;;;;;;;6.59;100.00;102180.78;5043608;28;20504;-74
2023/12/15 03:58:50;;;;;;;5.75;2.60;;;;;;;6.53;100.00;102184.44;5041632;28;20038;-74
2023/12/15 04:01:16;;;;;;;4.03;2.47;;;;;;;6.50;100.00;102191.25;5038059;28;20029;-74
2023/12/15 04:03:41;;;;;;;4.20;2.45;;;;;;;6.52;100.00;102197.41;5037706;28;20025;-74
2023/12/15 04:06:08;;;;;;;4.60;2.47;;;;;;;6.49;100.00;102204.22;5038004;28;20029;-74
2023/12/15 04:08:34;;;;;;;5.60;2.90;;;;;;;6.49;100.00;102204.22;5037456;28;20025;-74
2023/12/15 04:11:00;;;;;;;7.63;2.63;;;;;;;6.53;100.00;102209.28;5037767;28;20543;-75
2023/12/15 04:13:25;;;;;;;6.60;3.00;;;;;;;6.53;100.00;102212.06;5034040;28;20072;-74
2023/12/15 04:15:50;;;;;;;6.63;2.55;;;;;;;6.55;100.00;102220.97;5036462;28;20033;-75
2023/12/15 04:18:16;;;;;;;6.03;2.72;;;;;;;6.55;100.00;102221.78;5037581;28;20111;-74
2023/12/15 04:20:42;;;;;;;5.05;2.70;;;;;;;6.59;100.00;102216.66;5037685;28;20037;-74
2023/12/15 04:23:08;;;;;;;7.88;3.22;;;;;;;6.60;100.00;102223.84;5036130;28;20037;-74
2023/12/15 04:25:33;;;;;;;7.57;3.60;;;;;;;6.62;100.00;102228.09;5036651;28;20033;-74
2023/12/15 04:27:59;;;;;;;6.57;2.70;;;;;;;6.67;100.00;102232.94;5036030;28;20037;-75
2023/12/15 04:30:25;;;;;;;8.75;3.88;;;;;;;6.71;100.00;102239.69;5035071;28;20037;-74
2023/12/15 04:32:51;;;;;;;8.93;3.40;;;;;;;6.72;100.00;102245.00;5036348;28;20048;-74
2023/12/15 04:35:16;;;;;;;12.32;3.38;;;;;;;6.74;100.00;102247.50;5033591;28;20041;-74
2023/12/15 04:37:44;;;;;;;13.80;3.10;;;;;;;6.77;100.00;102247.09;5035759;28;20101;-74
2023/12/15 04:40:13;;;;;;;12.32;3.70;;;;;;;6.80;100.00;102246.63;5036112;28;20107;-74
2023/12/15 04:42:39;;;;;;;13.90;3.28;;;;;;;6.81;100.00;102253.84;5035837;28;20109;-74
2023/12/15 04:45:08;;;;;;;12.00;3.05;;;;;;;6.84;100.00;102255.31;5034295;28;20083;-74
2023/12/15 04:47:34;;;;;;;17.35;4.38;;;;;;;6.89;100.00;102261.00;5036869;28;20029;-74
2023/12/15 04:49:59;;;;;;;12.77;3.50;;;;;;;6.90;100.00;102268.19;5038940;28;20017;-74
2023/12/15 04:52:25;;;;;;;17.05;4.63;;;;;;;6.92;100.00;102269.66;5039032;28;20645;-74
2023/12/15 04:54:50;;;;;;;21.02;4.30;;;;;;;6.94;100.00;102264.78;5035867;28;20038;-74
2023/12/15 04:57:16;;;;;;;17.92;4.15;;;;;;;6.97;100.00;102271.75;5031261;28;20083;-75
2023/12/15 04:59:41;;;;;;;13.55;4.00;;;;;;;6.99;100.00;102272.34;5023487;28;20037;-74
2023/12/15 05:02:07;;;;;;;14.90;3.70;;;;;;;6.97;100.00;102279.22;5010645;28;20041;-74
2023/12/15 05:04:33;;;;;;;17.00;4.00;;;;;;;7.00;100.00;102287.88;5024592;28;20048;-74
2023/12/15 05:06:59;;;;;;;10.98;4.25;;;;;;;7.03;100.00;102292.09;5026895;28;20039;-74
2023/12/15 05:09:24;;;;;;;13.27;3.67;;;;;;;7.04;100.00;102297.38;5027031;28;20029;-74
2023/12/15 05:11:50;;;;;;;16.35;3.72;;;;;;;7.05;100.00;102298.22;5028297;28;20036;-74
2023/12/15 05:14:15;;;;;;;10.43;3.25;;;;;;;7.05;100.00;102292.69;5033094;28;20029;-74
2023/12/15 05:16:41;;;;;;;16.95;3.53;;;;;;;7.08;100.00;102297.78;5034912;28;20038;-74
2023/12/15 05:19:07;;;;;;;12.55;3.30;;;;;;;7.05;100.00;102289.94;5035266;28;20064;-75
2023/12/15 05:21:32;;;;;;;14.05;3.55;;;;;;;7.04;100.00;102294.63;5035130;28;20083;-75
2023/12/15 05:23:59;;;;;;;10.15;3.25;;;;;;;7.04;100.00;102286.34;5036335;28;20030;-74
2023/12/15 05:26:26;;;;;;;10.13;3.50;;;;;;;7.10;100.00;102279.94;5034054;28;20474;-75
2023/12/15 05:28:51;;;;;;;12.30;3.42;;;;;;;7.14;100.00;102275.63;5018695;28;20033;-75
2023/12/15 05:31:17;;;;;;;17.77;4.75;;;;;;;7.14;100.00;102283.91;5018857;28;20109;-74
2023/12/15 05:33:43;;;;;;;14.90;4.25;;;;;;;7.15;100.00;102279.22;5018396;28;20029;-74
2023/12/15 05:36:16;;;;;;;15.57;3.63;;;;;;;7.12;100.00;102282.44;5034564;28;20049;-75
2023/12/15 05:38:41;;;;;;;19.50;3.80;;;;;;;7.14;100.00;102289.44;5034756;28;20021;-75
2023/12/15 05:41:07;;;;;;;17.60;4.65;;;;;;;7.16;100.00;102289.22;5035768;28;20029;-75
2023/12/15 05:43:32;;;;;;;17.88;4.22;;;;;;;7.17;100.00;102285.38;5034845;28;20033;-74
2023/12/15 05:45:58;;;;;;;16.67;3.95;;;;;;;7.19;100.00;102298.94;5034091;28;20129;-74
2023/12/15 05:48:23;;;;;;;20.02;4.10;;;;;;;7.20;100.00;102301.50;5035971;28;20386;-75
2023/12/15 05:50:49;;;;;;;22.02;4.43;;;;;;;7.20;100.00;102312.53;5041328;28;20018;-75
2023/12/15 05:53:14;;;;;;;17.83;3.72;;;;;;;7.21;100.00;102310.63;5034768;28;20021;-74
2023/12/15 05:55:40;;;;;;;19.75;4.00;;;;;;;7.22;100.00;102317.84;5037761;28;20441;-74
2023/12/15 05:58:05;;;;;;;25.83;4.57;;;;;;;7.21;100.00;102330.81;5034888;28;20389;-75
2023/12/15 06:00:31;;;;;;;15.15;3.83;;;;;;;7.22;100.00;102328.91;5018114;28;20032;-75
2023/12/15 06:02:56;;;;;;;22.77;4.43;;;;;;;7.23;100.00;102328.66;5036088;28;20029;-75
2023/12/15 06:05:22;;;;;;;22.35;4.90;;;;;;;7.22;100.00;102329.75;5035775;28;20521;-75
2023/12/15 06:07:47;;;;;;;22.38;3.92;;;;;;;7.25;100.00;102337.59;5035756;28;20037;-75
2023/12/15 06:10:13;;;;;;;27.30;4.80;;;;;;;7.25;100.00;102348.63;5035839;28;20028;-75
2023/12/15 06:12:38;;;;;;;30.30;4.25;;;;;;;7.25;100.00;102351.41;5035914;28;20061;-75
2023/12/15 06:15:06;;;;;;;21.90;3.92;;;;;;;7.27;100.00;102353.94;5032958;28;20029;-75
2023/12/15 06:17:31;;;;;;;26.38;4.93;;;;;;;7.24;100.00;102352.47;5034638;28;20057;-74
2023/12/15 06:19:57;;;;;;;23.15;5.30;;;;;;;7.25;100.00;102364.38;5035782;28;20036;-74
2023/12/15 06:22:22;;;;;;;23.33;4.05;;;;;;;7.25;100.00;102358.84;5019720;28;20568;-74
2023/12/15 06:24:48;;;;;;;29.27;6.88;;;;;;;7.23;100.00;102364.59;5035686;28;20046;-74
2023/12/15 06:27:13;;;;;;;30.77;7.30;;;;;;;7.24;100.00;102366.28;5034605;28;20032;-75
2023/12/15 06:29:40;;;;;;;30.20;5.90;;;;;;;7.22;100.00;102373.97;5035568;28;20040;-75
2023/12/15 06:32:06;;;;;;;32.92;6.55;;;;;;;7.26;100.00;102377.13;5034709;28;20074;-74
2023/12/15 06:34:32;;;;;;;25.27;6.32;;;;;;;7.23;100.00;102377.56;5035561;28;20033;-75
2023/12/15 06:36:57;;;;;;;23.98;5.45;;;;;;;7.21;100.00;102380.53;5036438;28;20064;-75
2023/12/15 06:39:23;;;;;;;31.00;5.72;;;;;;;7.23;100.00;102389.47;5039244;28;20104;-75
2023/12/15 06:41:48;;;;;;;24.17;5.40;;;;;;;7.20;100.00;102389.91;5038408;28;20036;-74
2023/12/15 06:44:14;;;;;;;23.08;5.43;;;;;;;7.21;100.00;102390.75;5020087;28;20036;-74
2023/12/15 06:46:39;;;;;;;18.85;4.63;;;;;;;7.22;100.00;102387.78;5039449;28;20485;-74
2023/12/15 06:49:05;;;;;;;18.58;4.50;;;;;;;7.20;100.00;102389.09;5039212;28;20045;-74
2023/12/15 06:51:30;;;;;;;19.15;4.50;;;;;;;7.25;100.00;102398.38;5012065;28;20079;-75
2023/12/15 06:53:56;;;;;;;16.48;4.15;;;;;;;7.21;100.00;102393.53;5037679;28;20044;-75
2023/12/15 06:56:22;;;;;;;20.13;4.32;;;;;;;7.21;100.00;102397.13;5038706;28;20052;-75
2023/12/15 06:58:47;;;;;;;21.17;4.45;;;;;;;7.22;100.00;102393.31;5038931;28;20025;-74
2023/12/15 07:01:13;;;;;;;17.60;4.60;;;;;;;7.18;100.00;102397.59;5039228;28;20474;-75
2023/12/15 07:03:39;;;;;;;16.10;4.53;;;;;;;7.21;100.00;102402.66;5038959;28;20044;-75
2023/12/15 07:06:06;;;;;;;21.58;5.55;;;;;;;7.24;100.00;102406.88;5038101;28;20029;-75
2023/12/15 07:08:31;;;;;;;17.40;4.85;;;;;;;7.22;100.00;102415.44;5037251;28;20035;-74
2023/12/15 07:10:57;;;;;;;21.42;4.93;;;;;;;7.21;100.00;102413.72;5021154;28;20398;-74
2023/12/15 07:13:23;;;;;;;20.30;5.00;;;;;;;7.22;100.00;102409.91;5034771;28;20079;-74
2023/12/15 07:15:48;;;;;;;23.02;5.40;;;;;;;7.22;100.00;102406.28;5030628;28;20449;-74
2023/12/15 07:18:14;;;;;;;14.38;4.30;;;;;;;7.22;100.00;102409.91;5039239;28;20046;-74
2023/12/15 07:20:39;;;;;;;19.10;4.53;;;;;;;7.20;100.00;102417.56;5038829;28;20063;-74
2023/12/15 07:23:04;;;;;;;15.85;4.20;;;;;;;7.20;100.00;102412.03;5038342;28;20402;-74
2023/12/15 07:25:31;;;;;;;17.25;4.13;;;;;;;7.22;100.00;102422.88;5037529;28;20056;-75
2023/12/15 07:27:56;;;;;;;14.20;3.75;;;;;;;7.17;100.00;102426.31;5037107;28;20052;-74
2023/12/15 07:30:22;;;;;;;20.63;4.00;;;;;;;7.17;100.00;102431.81;5037465;28;20037;-74
2023/12/15 07:32:47;;;;;;;21.58;3.83;;;;;;;7.19;100.00;102431.59;5037410;28;20032;-74
2023/12/15 07:35:13;;;;;;;18.65;4.35;;;;;;;7.18;100.00;102433.50;5038652;28;20029;-74
2023/12/15 07:37:38;;;;;;;17.17;4.38;;;;;;;7.18;100.00;102436.28;5038049;28;20089;-75
2023/12/15 07:40:05;;;;;;;15.88;3.90;;;;;;;7.20;100.00;102444.34;5020951;28;20033;-74
2023/12/15 07:42:31;;;;;;;16.17;4.68;;;;;;;7.21;100.00;102451.56;5037040;28;20458;-74
2023/12/15 07:44:57;;;;;;;20.48;4.20;;;;;;;7.18;100.00;102454.78;5038063;28;20029;-74
2023/12/15 07:47:22;;;;;;;16.05;4.25;;;;;;;7.15;100.00;102462.44;5037033;28;20032;-75
2023/12/15 07:49:48;;;;;;;16.58;4.13;;;;;;;7.15;100.00;102469.88;5038473;28;20363;-74
2023/12/15 07:52:13;;;;;;;29.55;6.18;;;;;;;7.17;100.00;102481.56;5043299;28;20060;-74
2023/12/15 07:54:40;;;;;;;14.52;4.78;;;;;;;7.12;100.00;102489.66;5038129;28;20033;-74
2023/12/15 07:57:05;;;;;;;19.33;4.28;;;;;;;7.11;100.00;102494.34;5034937;28;20677;-74
2023/12/15 07:59:34;;;;;;;15.93;4.20;;;;;;;7.12;100.00;102482.22;5037949;28;20017;-74
2023/12/15 08:02:00;;;;;;;19.65;4.68;;;;;;;7.13;100.00;102489.47;5037998;28;20037;-74
2023/12/15 08:04:26;;;;;;;15.93;3.92;;;;;;;7.14;100.00;102496.69;5036744;28;20474;-74
2023/12/15 08:06:51;;;;;;;20.60;4.78;;;;;;;7.11;100.00;102504.56;5019883;28;20029;-74
2023/12/15 08:09:17;;;;;;;20.70;4.90;;;;;;;7.14;100.00;102504.97;5037725;28;20390;-74
2023/12/15 08:11:42;;;;;;;14.38;4.50;;;;;;;7.11;100.00;102510.94;5037604;28;20033;-74
2023/12/15 08:14:09;;;;;;;14.35;4.72;;;;;;;7.12;100.00;102523.69;5034071;28;20034;-74
2023/12/15 08:16:34;;;;;;;18.65;4.75;;;;;;;7.10;100.00;102528.59;5037522;28;20113;-74
2023/12/15 08:19:03;;;;;;;21.70;4.93;;;;;;;7.14;100.00;102523.47;5034126;28;20049;-74
2023/12/15 08:21:28;;;;;;;17.23;4.32;;;;;;;7.16;100.00;102529.63;5027872;28;20037;-75
2023/12/15 08:23:54;;;;;;;19.10;4.13;;;;;;;7.14;100.00;102535.34;5037401;28;20105;-75
2023/12/15 08:26:26;;;;;;;20.23;4.22;;;;;;;7.14;100.00;102534.53;5035577;28;20039;-75
2023/12/15 08:28:53;;;;;;;18.45;4.50;;;;;;;7.15;100.00;102538.97;5020650;28;20093;-74
2023/12/15 08:31:22;;;;;;;24.02;4.80;;;;;;;7.15;100.00;102541.72;5037416;28;20064;-74
2023/12/15 08:33:48;;;;;;;15.10;4.30;;;;;;;7.14;100.00;102551.09;5020289;28;20840;-74
2023/12/15 08:36:14;;;;;;;22.33;5.05;;;;;;;7.19;100.00;102554.06;5035914;28;20026;-74
2023/12/15 08:38:39;;;;;;;15.32;4.03;;;;;;;7.19;100.00;102559.56;5028122;28;20022;-74
2023/12/15 08:41:06;;;;;;;18.63;4.35;;;;;;;7.19;100.00;102562.34;5036038;28;20389;-74
2023/12/15 08:43:31;;;;;;;18.05;4.55;;;;;;;7.20;100.00;102555.72;5037135;28;20032;-74
2023/12/15 08:45:57;;;;;;;21.95;5.28;;;;;;;7.22;100.00;102563.81;5033590;28;20665;-74
2023/12/15 08:48:23;;;;;;;19.45;4.70;;;;;;;7.21;100.00;102568.47;5036864;28;20036;-75
2023/12/15 08:50:49;;;;;;;18.40;4.35;;;;;;;7.24;100.00;102565.25;5045652;28;20731;-74
2023/12/15 08:53:16;;;;;;;27.05;5.97;;;;;;;7.30;100.00;102567.16;5037011;28;20053;-75
2023/12/15 08:55:42;;;;;;;19.10;4.43;;;;;;;7.29;100.00;102568.22;5037327;28;20029;-75
2023/12/15 08:58:07;;;;;;;23.88;5.53;;;;;;;7.31;100.00;102577.13;5046095;28;20436;-74
2023/12/15 09:00:32;;;;;;;20.30;5.75;;;;;;;7.35;100.00;102575.63;5035351;28;20025;-75
2023/12/15 09:02:58;;;;;;;26.58;5.88;;;;;;;7.39;100.00;102582.41;5035656;28;20038;-75
2023/12/15 09:05:23;;;;;;;23.92;5.30;;;;;;;7.42;100.00;102594.09;5035382;28;20025;-74
2023/12/15 09:07:51;;;;;;;29.50;6.75;;;;;;;7.44;100.00;102595.56;5036519;28;20394;-74
2023/12/15 09:10:17;;;;;;;31.92;6.32;;;;;;;7.47;100.00;102597.88;5036645;28;20083;-75
2023/12/15 09:12:42;;;;;;;16.58;4.22;;;;;;;7.46;100.00;102589.81;5035393;28;20078;-75
2023/12/15 09:15:08;;;;;;;17.73;4.88;;;;;;;7.49;100.00;102590.19;5017422;28;20112;-74
2023/12/15 09:17:33;;;;;;;30.17;5.82;;;;;;;7.52;100.00;102603.59;5035339;28;20059;-75
2023/12/15 09:19:59;;;;;;;15.88;4.55;;;;;;;7.53;100.00;102601.69;5029365;28;20513;-74
2023/12/15 09:22:24;;;;;;;15.15;4.65;;;;;;;7.58;100.00;102604.63;5036375;28;20040;-74
2023/12/15 09:24:51;;;;;;;15.02;4.80;;;;;;;7.60;100.00;102597.81;5035087;28;20029;-74
2023/12/15 09:27:17;;;;;;;18.83;4.82;;;;;;;7.63;100.00;102609.47;5035237;28;20026;-75
2023/12/15 09:29:43;;;;;;;19.95;5.07;;;;;;;7.65;100.00;102602.66;5020555;28;20037;-75
2023/12/15 09:32:08;;;;;;;22.30;4.60;;;;;;;7.69;100.00;102620.50;5011853;28;20030;-75
2023/12/15 09:34:34;;;;;;;13.65;4.28;;;;;;;7.74;100.00;102626.19;5036267;28;20037;-74
2023/12/15 09:36:59;;;;;;;22.95;4.70;;;;;;;7.78;100.00;102630.22;5034725;28;20521;-74
2023/12/15 09:39:25;;;;;;;20.40;4.68;;;;;;;7.81;100.00;102640.84;5034653;28;20049;-75
2023/12/15 09:41:50;;;;;;;19.88;4.55;;;;;;;7.90;100.00;102648.88;5034976;28;20422;-75
2023/12/15 09:44:16;;;;;;;16.00;4.47;;;;;;;7.94;100.00;102662.03;5033382;28;20037;-75
2023/12/15 09:46:42;;;;;;;20.00;4.60;;;;;;;7.96;100.00;102667.31;5035030;28;20052;-74
2023/12/15 09:49:10;;;;;;;23.23;4.85;;;;;;;8.02;100.00;102680.25;5034783;28;20060;-74
2023/12/15 09:51:36;;;;;;;28.98;5.97;;;;;;;8.06;100.00;102690.66;5025435;28;20033;-74
2023/12/15 09:54:01;;;;;;;19.48;4.82;;;;;;;8.13;100.00;102703.59;5018174;28;20088;-74
2023/12/15 09:56:26;;;;;;;24.02;4.60;;;;;;;8.16;100.00;102720.63;5036119;28;20032;-74
2023/12/15 09:58:53;;;;;;;24.15;5.70;;;;;;;8.20;100.00;102735.72;5023275;28;20029;-74
2023/12/15 10:01:19;;;;;;;17.98;5.32;;;;;;;8.23;100.00;102760.16;5028511;28;20091;-74
2023/12/15 10:03:45;;;;;;;26.63;6.90;;;;;;;8.31;100.00;102747.13;5029025;28;20029;-75
2023/12/15 10:06:10;;;;;;;21.48;4.80;;;;;;;8.34;100.00;102746.69;5004864;28;20041;-74
2023/12/15 10:08:40;;;;;;;21.98;4.80;;;;;;;8.39;100.00;102735.81;5022138;28;20030;-74
2023/12/15 10:11:07;;;;;;;23.85;5.32;;;;;;;8.41;100.00;102717.03;5034836;28;20433;-74
2023/12/15 10:13:32;;;;;;;24.15;6.20;;;;;;;8.43;100.00;102720.44;5034855;28;20044;-74
2023/12/15 10:15:58;;;;;;;28.38;5.63;;;;;;;8.46;100.00;102722.75;5038873;28;20030;-74
2023/12/15 10:18:23;;;;;;;25.70;6.43;;;;;;;8.50;100.00;102721.25;5034584;28;20049;-74
2023/12/15 10:20:49;;;;;;;19.10;6.07;;;;;;;8.52;100.00;102723.78;5012963;28;20029;-74
2023/12/15 10:23:15;;;;;;;22.80;5.18;;;;;;;8.56;100.00;102728.66;5038352;28;20033;-75
2023/12/15 10:25:47;;;;;;;33.00;5.55;;;;;;;8.61;100.00;102734.34;5036901;28;20029;-74
2023/12/15 10:28:14;;;;;;;20.15;5.28;;;;;;;8.66;100.00;102740.06;5021837;28;20029;-74
2023/12/15 10:30:40;;;;;;;26.67;5.20;;;;;;;8.71;100.00;102742.97;5027857;28;20447;-74
2023/12/15 10:33:06;;;;;;;25.05;5.50;;;;;;;8.75;100.00;102743.41;5037874;28;20044;-75
2023/12/15 10:35:32;;;;;;;25.35;4.97;;;;;;;8.78;100.00;102736.56;5036635;28;20025;-75
2023/12/15 10:37:57;;;;;;;30.20;5.25;;;;;;;8.86;100.00;102739.88;5037977;28;20033;-74
2023/12/15 10:40:23;;;;;;;19.13;4.95;;;;;;;8.90;100.00;102751.34;5039619;28;20418;-74
2023/12/15 10:42:50;;;;;;;23.65;5.30;;;;;;;9.00;100.00;102751.69;5036786;28;20030;-74
2023/12/15 10:45:15;;;;;;;26.50;5.10;;;;;;;9.06;100.00;102756.28;5020437;28;20029;-74
2023/12/15 10:47:41;;;;;;;28.95;5.75;;;;;;;9.10;100.00;102748.34;5035527;28;20029;-74
2023/12/15 10:50:08;;;;;;;22.38;4.30;;;;;;;9.15;100.00;102763.22;5042171;28;20029;-74
2023/12/15 10:52:35;;;;;;;26.20;4.72;;;;;;;9.12;100.00;102760.06;5021990;28;20022;-74
2023/12/15 10:55:03;;;;;;;26.25;4.80;;;;;;;9.16;100.00;102758.53;5012034;28;20072;-75
2023/12/15 10:57:32;;;;;;;26.15;4.28;;;;;;;9.22;100.00;102754.84;5028306;28;20029;-74
2023/12/15 10:59:59;;;;;;;21.10;4.03;;;;;;;9.23;100.00;102758.47;5029368;28;20036;-74
2023/12/15 11:02:24;;;;;;;22.10;3.72;;;;;;;9.26;100.00;102753.31;5018835;28;20025;-75
2023/12/15 11:04:51;;;;;;;22.55;3.70;;;;;;;9.26;100.00;102752.47;5031302;28;20028;-75
2023/12/15 11:07:22;;;;;;;23.35;3.72;;;;;;;9.24;100.00;102741.59;5030384;28;20041;-75
2023/12/15 11:09:47;;;;;;;22.90;3.05;;;;;;;9.28;100.00;102739.22;5010469;28;20057;-74
2023/12/15 11:12:27;;;;;;;24.45;3.78;;;;;;;9.28;100.00;102740.06;5030165;28;20036;-74